Knox, Indiana
Current Conditions -  °F | °C
As of 3:55 PM on Friday 31 Oct 2014 (Local Time) from KOXI Reporting Station
Overcast Overcast  
Wind Chill: 23°   Ceiling: 1200
Heat Index: 35°   Visibility: 10mi
Dew Point: 33°   Wind: 23mph
Humidity: 90%   Direction: 10°N
Pressure: 30.09"   Gusts: 29mph
Location:  41.3°N, 86.63°W
Report Text: KOXI 312055Z AUTO 01020G25KT 10SM OVC012 02/00 A3009 RMK AO1 T00180003
Loading
Personal Weather Stations






























Interactive Weather Map
Tropical Storm Tracking
New forecast layout! Learn more

10-Day Weather Forecast

Advertisements
Track Severe Weather on mobile